Forside
METAR-TAF:

METAR-TAF

Lufthavne :

Presque_Isle_County_Airport

Rogers City, Michigan, USA

Breddekreds: 45-24-25N, længdekreds: 083-48-46W, højde: 204 m

Aktuelle vejr

Denne rapport blev lavet for 23 minutter siden, kl. 18:15 UTC
Vind 10 kt fra vestnordvest med vindstød på up til 17 kt
Temperatur 5°C
Fugtighed 52%
Tryk 1018 hPa
Sigt: 16.1 km
skyfri

METAR: KPZQ 021815Z AUTO 29010G17KT 10SM CLR 05/M04 A3007 RMK AO2 T00531040

Tid: 13:38 (18:38 UTC)


TAF: fraværende

Vejrobservationer og prognoser fra mere end 4000 lufthavne (METAR og TAF).

De gule og røde prikker repræsenterer de meteorologiske stationer.

Flyt musen over at se navnet på stationen.

Så klik over at se vejr observationer og prognoser.

At skifte det kort: Klik på de grønne knapper med et sort kors for at zoome ind; på den grønne knap med en bindestreg for at zoome ud; eller på de grønne pile for tilstødende kort.


METAR-TAF: